sensor_id;sensor_type;location;lat;lon;timestamp;P1;durP1;ratioP1;P2;durP2;ratioP2
41693;SDS011;27377;50.666;9.150;2023-04-03T00:01:55;4.97;;;1.45;;
41693;SDS011;27377;50.666;9.150;2023-04-03T00:04:20;5.00;;;1.25;;
41693;SDS011;27377;50.666;9.150;2023-04-03T00:06:46;3.08;;;1.20;;
41693;SDS011;27377;50.666;9.150;2023-04-03T00:09:11;4.93;;;1.30;;
41693;SDS011;27377;50.666;9.150;2023-04-03T00:11:37;5.70;;;1.33;;
41693;SDS011;27377;50.666;9.150;2023-04-03T00:14:02;3.90;;;1.20;;
41693;SDS011;27377;50.666;9.150;2023-04-03T00:16:28;5.77;;;1.40;;
41693;SDS011;27377;50.666;9.150;2023-04-03T00:18:54;5.50;;;1.50;;
41693;SDS011;27377;50.666;9.150;2023-04-03T00:21:19;4.88;;;1.40;;
41693;SDS011;27377;50.666;9.150;2023-04-03T00:23:45;6.25;;;1.67;;
41693;SDS011;27377;50.666;9.150;2023-04-03T00:26:10;7.30;;;1.60;;
41693;SDS011;27377;50.666;9.150;2023-04-03T00:28:36;3.97;;;1.55;;
41693;SDS011;27377;50.666;9.150;2023-04-03T00:31:02;5.73;;;1.53;;
41693;SDS011;27377;50.666;9.150;2023-04-03T00:33:27;5.90;;;1.50;;
41693;SDS011;27377;50.666;9.150;2023-04-03T00:35:53;6.00;;;1.57;;
41693;SDS011;27377;50.666;9.150;2023-04-03T00:38:19;5.35;;;1.40;;
41693;SDS011;27377;50.666;9.150;2023-04-03T00:40:46;5.35;;;1.30;;
41693;SDS011;27377;50.666;9.150;2023-04-03T00:43:18;4.40;;;1.40;;
41693;SDS011;27377;50.666;9.150;2023-04-03T00:45:52;5.03;;;1.50;;
41693;SDS011;27377;50.666;9.150;2023-04-03T00:48:20;6.37;;;1.63;;
41693;SDS011;27377;50.666;9.150;2023-04-03T00:50:58;4.45;;;1.30;;
41693;SDS011;27377;50.666;9.150;2023-04-03T00:53:26;4.95;;;1.40;;
41693;SDS011;27377;50.666;9.150;2023-04-03T00:55:55;7.30;;;1.80;;
41693;SDS011;27377;50.666;9.150;2023-04-03T00:58:23;6.30;;;1.50;;
41693;SDS011;27377;50.666;9.150;2023-04-03T01:01:25;4.57;;;1.30;;
41693;SDS011;27377;50.666;9.150;2023-04-03T01:03:53;5.43;;;1.50;;
41693;SDS011;27377;50.666;9.150;2023-04-03T01:06:20;5.57;;;1.58;;
41693;SDS011;27377;50.666;9.150;2023-04-03T01:08:51;9.60;;;1.70;;
41693;SDS011;27377;50.666;9.150;2023-04-03T01:11:17;5.53;;;1.30;;
41693;SDS011;27377;50.666;9.150;2023-04-03T01:13:42;6.10;;;1.60;;
41693;SDS011;27377;50.666;9.150;2023-04-03T01:16:08;4.32;;;1.30;;
41693;SDS011;27377;50.666;9.150;2023-04-03T01:18:36;4.65;;;1.38;;
41693;SDS011;27377;50.666;9.150;2023-04-03T01:23:57;5.13;;;1.40;;
41693;SDS011;27377;50.666;9.150;2023-04-03T01:26:46;5.57;;;1.50;;
41693;SDS011;27377;50.666;9.150;2023-04-03T01:29:13;5.40;;;1.55;;
41693;SDS011;27377;50.666;9.150;2023-04-03T01:31:44;5.73;;;1.60;;
41693;SDS011;27377;50.666;9.150;2023-04-03T01:34:12;4.32;;;1.45;;
41693;SDS011;27377;50.666;9.150;2023-04-03T01:36:37;5.07;;;1.50;;
41693;SDS011;27377;50.666;9.150;2023-04-03T01:39:03;7.97;;;1.67;;
41693;SDS011;27377;50.666;9.150;2023-04-03T01:41:29;5.18;;;1.60;;
41693;SDS011;27377;50.666;9.150;2023-04-03T01:43:54;6.22;;;1.70;;
41693;SDS011;27377;50.666;9.150;2023-04-03T01:46:20;6.07;;;1.70;;
41693;SDS011;27377;50.666;9.150;2023-04-03T01:48:46;6.15;;;1.60;;
41693;SDS011;27377;50.666;9.150;2023-04-03T01:51:12;5.07;;;1.50;;
41693;SDS011;27377;50.666;9.150;2023-04-03T01:53:38;6.63;;;1.58;;
41693;SDS011;27377;50.666;9.150;2023-04-03T01:56:04;6.20;;;1.50;;
41693;SDS011;27377;50.666;9.150;2023-04-03T01:58:30;6.40;;;1.70;;
41693;SDS011;27377;50.666;9.150;2023-04-03T02:00:55;5.93;;;1.60;;
41693;SDS011;27377;50.666;9.150;2023-04-03T02:03:21;4.47;;;1.40;;
41693;SDS011;27377;50.666;9.150;2023-04-03T02:05:47;5.75;;;1.60;;
41693;SDS011;27377;50.666;9.150;2023-04-03T02:08:12;10.23;;;1.77;;
41693;SDS011;27377;50.666;9.150;2023-04-03T02:10:38;6.72;;;1.80;;
41693;SDS011;27377;50.666;9.150;2023-04-03T02:13:04;5.60;;;1.50;;
41693;SDS011;27377;50.666;9.150;2023-04-03T02:15:30;5.60;;;1.50;;
41693;SDS011;27377;50.666;9.150;2023-04-03T02:17:56;6.40;;;1.48;;
41693;SDS011;27377;50.666;9.150;2023-04-03T02:20:21;4.95;;;1.50;;
41693;SDS011;27377;50.666;9.150;2023-04-03T02:22:47;7.43;;;1.73;;
41693;SDS011;27377;50.666;9.150;2023-04-03T02:25:13;6.30;;;1.65;;
41693;SDS011;27377;50.666;9.150;2023-04-03T02:27:41;5.72;;;1.40;;
41693;SDS011;27377;50.666;9.150;2023-04-03T02:30:06;4.95;;;1.40;;
41693;SDS011;27377;50.666;9.150;2023-04-03T02:32:34;5.80;;;1.50;;
41693;SDS011;27377;50.666;9.150;2023-04-03T02:35:00;4.07;;;1.30;;
41693;SDS011;27377;50.666;9.150;2023-04-03T02:37:25;5.87;;;1.40;;
41693;SDS011;27377;50.666;9.150;2023-04-03T02:39:51;4.17;;;1.30;;
41693;SDS011;27377;50.666;9.150;2023-04-03T02:42:16;4.30;;;1.50;;
41693;SDS011;27377;50.666;9.150;2023-04-03T02:44:42;4.67;;;1.40;;
41693;SDS011;27377;50.666;9.150;2023-04-03T02:47:07;4.97;;;1.50;;
41693;SDS011;27377;50.666;9.150;2023-04-03T02:49:33;5.67;;;1.60;;
41693;SDS011;27377;50.666;9.150;2023-04-03T02:51:58;5.40;;;1.30;;
41693;SDS011;27377;50.666;9.150;2023-04-03T02:54:24;6.40;;;1.40;;
41693;SDS011;27377;50.666;9.150;2023-04-03T02:56:53;5.40;;;1.45;;
41693;SDS011;27377;50.666;9.150;2023-04-03T02:59:19;5.20;;;1.47;;
41693;SDS011;27377;50.666;9.150;2023-04-03T03:01:44;5.53;;;1.50;;
41693;SDS011;27377;50.666;9.150;2023-04-03T03:04:10;4.38;;;1.40;;
41693;SDS011;27377;50.666;9.150;2023-04-03T03:06:36;6.03;;;1.48;;
41693;SDS011;27377;50.666;9.150;2023-04-03T03:09:01;4.90;;;1.60;;
41693;SDS011;27377;50.666;9.150;2023-04-03T03:11:28;4.85;;;1.50;;
41693;SDS011;27377;50.666;9.150;2023-04-03T03:13:54;6.78;;;1.60;;
41693;SDS011;27377;50.666;9.150;2023-04-03T03:16:20;6.15;;;1.70;;
41693;SDS011;27377;50.666;9.150;2023-04-03T03:18:45;6.93;;;1.70;;
41693;SDS011;27377;50.666;9.150;2023-04-03T03:21:11;5.13;;;1.60;;
41693;SDS011;27377;50.666;9.150;2023-04-03T03:23:36;6.00;;;1.60;;
41693;SDS011;27377;50.666;9.150;2023-04-03T03:26:03;9.00;;;1.70;;
41693;SDS011;27377;50.666;9.150;2023-04-03T03:28:31;7.63;;;1.80;;
41693;SDS011;27377;50.666;9.150;2023-04-03T03:30:57;6.03;;;1.58;;
41693;SDS011;27377;50.666;9.150;2023-04-03T03:33:23;6.32;;;1.48;;
41693;SDS011;27377;50.666;9.150;2023-04-03T03:35:50;6.95;;;1.88;;
41693;SDS011;27377;50.666;9.150;2023-04-03T03:38:16;4.55;;;1.60;;
41693;SDS011;27377;50.666;9.150;2023-04-03T03:40:42;7.77;;;1.60;;
41693;SDS011;27377;50.666;9.150;2023-04-03T03:43:07;5.87;;;1.70;;
41693;SDS011;27377;50.666;9.150;2023-04-03T03:45:33;5.43;;;1.50;;
41693;SDS011;27377;50.666;9.150;2023-04-03T03:47:58;5.63;;;1.60;;
41693;SDS011;27377;50.666;9.150;2023-04-03T03:50:24;5.23;;;1.70;;
41693;SDS011;27377;50.666;9.150;2023-04-03T03:52:49;5.97;;;1.50;;
41693;SDS011;27377;50.666;9.150;2023-04-03T03:55:15;5.85;;;1.50;;
41693;SDS011;27377;50.666;9.150;2023-04-03T03:57:41;7.13;;;2.10;;
41693;SDS011;27377;50.666;9.150;2023-04-03T04:00:06;5.13;;;1.70;;
41693;SDS011;27377;50.666;9.150;2023-04-03T04:02:33;7.43;;;1.90;;
41693;SDS011;27377;50.666;9.150;2023-04-03T04:04:59;7.30;;;1.80;;
41693;SDS011;27377;50.666;9.150;2023-04-03T04:07:24;6.00;;;1.52;;
41693;SDS011;27377;50.666;9.150;2023-04-03T04:09:53;5.63;;;1.70;;
41693;SDS011;27377;50.666;9.150;2023-04-03T04:12:18;6.10;;;1.70;;
41693;SDS011;27377;50.666;9.150;2023-04-03T04:14:44;7.40;;;1.80;;
41693;SDS011;27377;50.666;9.150;2023-04-03T04:17:11;5.30;;;1.70;;
41693;SDS011;27377;50.666;9.150;2023-04-03T04:19:40;6.30;;;1.67;;
41693;SDS011;27377;50.666;9.150;2023-04-03T04:22:06;6.07;;;1.90;;
41693;SDS011;27377;50.666;9.150;2023-04-03T04:24:31;6.87;;;1.97;;
41693;SDS011;27377;50.666;9.150;2023-04-03T04:26:57;7.50;;;2.13;;
41693;SDS011;27377;50.666;9.150;2023-04-03T04:29:23;7.05;;;1.73;;
41693;SDS011;27377;50.666;9.150;2023-04-03T04:31:48;6.40;;;1.88;;
41693;SDS011;27377;50.666;9.150;2023-04-03T04:34:14;7.18;;;2.15;;
41693;SDS011;27377;50.666;9.150;2023-04-03T04:36:40;7.20;;;2.20;;
41693;SDS011;27377;50.666;9.150;2023-04-03T04:39:05;6.63;;;2.30;;
41693;SDS011;27377;50.666;9.150;2023-04-03T04:41:31;6.00;;;2.17;;
41693;SDS011;27377;50.666;9.150;2023-04-03T04:43:56;7.07;;;2.40;;
41693;SDS011;27377;50.666;9.150;2023-04-03T04:46:22;8.23;;;2.28;;
41693;SDS011;27377;50.666;9.150;2023-04-03T04:48:48;7.93;;;2.50;;
41693;SDS011;27377;50.666;9.150;2023-04-03T04:51:14;8.23;;;2.47;;
41693;SDS011;27377;50.666;9.150;2023-04-03T04:53:40;8.07;;;2.35;;
41693;SDS011;27377;50.666;9.150;2023-04-03T04:56:07;7.15;;;2.30;;
41693;SDS011;27377;50.666;9.150;2023-04-03T04:58:33;7.10;;;2.23;;
41693;SDS011;27377;50.666;9.150;2023-04-03T05:00:59;7.15;;;2.30;;
41693;SDS011;27377;50.666;9.150;2023-04-03T05:03:26;8.07;;;2.40;;
41693;SDS011;27377;50.666;9.150;2023-04-03T05:05:51;7.40;;;2.43;;
41693;SDS011;27377;50.666;9.150;2023-04-03T05:08:17;5.50;;;2.20;;
41693;SDS011;27377;50.666;9.150;2023-04-03T05:10:44;9.07;;;2.70;;
41693;SDS011;27377;50.666;9.150;2023-04-03T05:13:10;6.47;;;2.30;;
41693;SDS011;27377;50.666;9.150;2023-04-03T05:15:36;8.47;;;2.40;;
41693;SDS011;27377;50.666;9.150;2023-04-03T05:18:01;8.47;;;2.50;;
41693;SDS011;27377;50.666;9.150;2023-04-03T05:20:27;7.60;;;2.80;;
41693;SDS011;27377;50.666;9.150;2023-04-03T05:22:53;8.43;;;2.63;;
41693;SDS011;27377;50.666;9.150;2023-04-03T05:25:18;7.73;;;2.47;;
41693;SDS011;27377;50.666;9.150;2023-04-03T05:27:44;9.07;;;2.77;;
41693;SDS011;27377;50.666;9.150;2023-04-03T05:30:09;10.00;;;2.65;;
41693;SDS011;27377;50.666;9.150;2023-04-03T05:32:36;9.53;;;2.60;;
41693;SDS011;27377;50.666;9.150;2023-04-03T05:35:01;7.80;;;2.38;;
41693;SDS011;27377;50.666;9.150;2023-04-03T05:37:27;8.23;;;2.78;;
41693;SDS011;27377;50.666;9.150;2023-04-03T05:39:52;7.70;;;2.60;;
41693;SDS011;27377;50.666;9.150;2023-04-03T05:42:18;8.73;;;2.87;;
41693;SDS011;27377;50.666;9.150;2023-04-03T05:44:43;7.37;;;2.57;;
41693;SDS011;27377;50.666;9.150;2023-04-03T05:47:11;8.13;;;2.67;;
41693;SDS011;27377;50.666;9.150;2023-04-03T05:49:37;6.97;;;2.75;;
41693;SDS011;27377;50.666;9.150;2023-04-03T05:52:05;7.43;;;2.60;;
41693;SDS011;27377;50.666;9.150;2023-04-03T05:54:37;8.18;;;2.50;;
41693;SDS011;27377;50.666;9.150;2023-04-03T05:57:03;7.37;;;2.90;;
41693;SDS011;27377;50.666;9.150;2023-04-03T05:59:28;6.80;;;2.53;;
41693;SDS011;27377;50.666;9.150;2023-04-03T06:01:54;8.50;;;2.53;;
41693;SDS011;27377;50.666;9.150;2023-04-03T06:04:19;10.97;;;2.77;;
41693;SDS011;27377;50.666;9.150;2023-04-03T06:06:53;7.60;;;2.80;;
41693;SDS011;27377;50.666;9.150;2023-04-03T06:09:21;7.90;;;2.50;;
41693;SDS011;27377;50.666;9.150;2023-04-03T06:11:48;8.38;;;2.95;;
41693;SDS011;27377;50.666;9.150;2023-04-03T06:14:15;7.45;;;2.42;;
41693;SDS011;27377;50.666;9.150;2023-04-03T06:16:40;7.43;;;2.80;;
41693;SDS011;27377;50.666;9.150;2023-04-03T06:19:09;7.43;;;2.50;;
41693;SDS011;27377;50.666;9.150;2023-04-03T06:21:36;9.27;;;2.55;;
41693;SDS011;27377;50.666;9.150;2023-04-03T06:24:04;7.65;;;2.60;;
41693;SDS011;27377;50.666;9.150;2023-04-03T06:26:30;7.18;;;2.50;;
41693;SDS011;27377;50.666;9.150;2023-04-03T06:28:57;6.80;;;2.60;;
41693;SDS011;27377;50.666;9.150;2023-04-03T06:31:22;7.50;;;2.55;;
41693;SDS011;27377;50.666;9.150;2023-04-03T06:33:48;10.07;;;2.60;;
41693;SDS011;27377;50.666;9.150;2023-04-03T06:36:14;7.47;;;2.37;;
41693;SDS011;27377;50.666;9.150;2023-04-03T06:38:44;7.47;;;2.60;;
41693;SDS011;27377;50.666;9.150;2023-04-03T06:41:10;6.72;;;2.35;;
41693;SDS011;27377;50.666;9.150;2023-04-03T06:43:36;8.97;;;2.50;;
41693;SDS011;27377;50.666;9.150;2023-04-03T06:46:01;9.17;;;2.60;;
41693;SDS011;27377;50.666;9.150;2023-04-03T06:48:27;8.97;;;2.60;;
41693;SDS011;27377;50.666;9.150;2023-04-03T06:50:53;9.73;;;2.60;;
41693;SDS011;27377;50.666;9.150;2023-04-03T06:53:18;9.60;;;2.50;;
41693;SDS011;27377;50.666;9.150;2023-04-03T06:55:44;6.40;;;2.20;;
41693;SDS011;27377;50.666;9.150;2023-04-03T06:58:10;8.20;;;2.40;;
41693;SDS011;27377;50.666;9.150;2023-04-03T07:00:35;9.73;;;2.57;;
41693;SDS011;27377;50.666;9.150;2023-04-03T07:03:01;8.30;;;2.50;;
41693;SDS011;27377;50.666;9.150;2023-04-03T07:05:27;7.45;;;2.63;;
41693;SDS011;27377;50.666;9.150;2023-04-03T07:07:53;6.57;;;2.33;;
41693;SDS011;27377;50.666;9.150;2023-04-03T07:10:18;8.32;;;2.67;;
41693;SDS011;27377;50.666;9.150;2023-04-03T07:12:44;7.55;;;2.72;;
41693;SDS011;27377;50.666;9.150;2023-04-03T07:15:10;7.03;;;2.37;;
41693;SDS011;27377;50.666;9.150;2023-04-03T07:17:37;8.55;;;2.63;;
41693;SDS011;27377;50.666;9.150;2023-04-03T07:20:03;5.97;;;2.38;;
41693;SDS011;27377;50.666;9.150;2023-04-03T07:22:30;6.85;;;2.40;;
41693;SDS011;27377;50.666;9.150;2023-04-03T07:24:55;8.20;;;2.45;;
41693;SDS011;27377;50.666;9.150;2023-04-03T07:27:21;8.82;;;2.50;;
41693;SDS011;27377;50.666;9.150;2023-04-03T07:29:47;6.60;;;2.20;;
41693;SDS011;27377;50.666;9.150;2023-04-03T07:32:13;8.77;;;2.40;;
41693;SDS011;27377;50.666;9.150;2023-04-03T07:34:39;9.45;;;2.25;;
41693;SDS011;27377;50.666;9.150;2023-04-03T07:37:05;7.40;;;2.60;;
41693;SDS011;27377;50.666;9.150;2023-04-03T07:39:31;6.32;;;2.38;;
41693;SDS011;27377;50.666;9.150;2023-04-03T07:41:57;7.50;;;2.42;;
41693;SDS011;27377;50.666;9.150;2023-04-03T07:44:22;6.55;;;2.28;;
41693;SDS011;27377;50.666;9.150;2023-04-03T07:46:48;7.57;;;2.30;;
41693;SDS011;27377;50.666;9.150;2023-04-03T07:49:15;8.60;;;2.50;;
41693;SDS011;27377;50.666;9.150;2023-04-03T07:51:43;8.27;;;2.63;;
41693;SDS011;27377;50.666;9.150;2023-04-03T07:54:08;8.00;;;2.33;;
41693;SDS011;27377;50.666;9.150;2023-04-03T07:56:34;7.10;;;2.50;;
41693;SDS011;27377;50.666;9.150;2023-04-03T07:59:00;7.53;;;2.30;;
41693;SDS011;27377;50.666;9.150;2023-04-03T08:01:25;6.20;;;2.23;;
41693;SDS011;27377;50.666;9.150;2023-04-03T08:03:51;7.60;;;2.30;;
41693;SDS011;27377;50.666;9.150;2023-04-03T08:06:17;7.35;;;2.28;;
41693;SDS011;27377;50.666;9.150;2023-04-03T08:08:42;7.87;;;2.10;;
41693;SDS011;27377;50.666;9.150;2023-04-03T08:11:09;5.93;;;2.40;;
41693;SDS011;27377;50.666;9.150;2023-04-03T08:13:35;7.75;;;2.30;;
41693;SDS011;27377;50.666;9.150;2023-04-03T08:16:11;7.20;;;2.40;;
41693;SDS011;27377;50.666;9.150;2023-04-03T08:18:41;8.57;;;2.17;;
41693;SDS011;27377;50.666;9.150;2023-04-03T08:21:07;8.40;;;2.50;;
41693;SDS011;27377;50.666;9.150;2023-04-03T08:23:34;5.70;;;2.60;;
41693;SDS011;27377;50.666;9.150;2023-04-03T08:26:07;6.25;;;2.47;;
41693;SDS011;27377;50.666;9.150;2023-04-03T08:28:34;6.75;;;2.47;;
41693;SDS011;27377;50.666;9.150;2023-04-03T08:31:04;7.73;;;2.50;;
41693;SDS011;27377;50.666;9.150;2023-04-03T08:33:31;6.00;;;2.03;;
41693;SDS011;27377;50.666;9.150;2023-04-03T08:35:57;7.18;;;2.33;;
41693;SDS011;27377;50.666;9.150;2023-04-03T08:38:22;7.50;;;2.27;;
41693;SDS011;27377;50.666;9.150;2023-04-03T08:40:58;7.93;;;2.47;;
41693;SDS011;27377;50.666;9.150;2023-04-03T08:43:36;7.73;;;2.40;;
41693;SDS011;27377;50.666;9.150;2023-04-03T08:46:19;7.70;;;2.40;;
41693;SDS011;27377;50.666;9.150;2023-04-03T08:48:51;5.13;;;2.10;;
41693;SDS011;27377;50.666;9.150;2023-04-03T08:51:19;6.72;;;2.40;;
41693;SDS011;27377;50.666;9.150;2023-04-03T08:54:06;6.55;;;2.28;;
41693;SDS011;27377;50.666;9.150;2023-04-03T08:56:37;6.97;;;2.20;;
41693;SDS011;27377;50.666;9.150;2023-04-03T08:59:09;6.37;;;2.40;;
41693;SDS011;27377;50.666;9.150;2023-04-03T09:01:39;8.57;;;2.40;;
41693;SDS011;27377;50.666;9.150;2023-04-03T09:04:10;7.10;;;2.40;;
41693;SDS011;27377;50.666;9.150;2023-04-03T09:06:38;7.10;;;2.60;;
41693;SDS011;27377;50.666;9.150;2023-04-03T09:09:11;7.28;;;2.33;;
41693;SDS011;27377;50.666;9.150;2023-04-03T09:12:00;6.80;;;2.53;;
41693;SDS011;27377;50.666;9.150;2023-04-03T09:19:49;8.25;;;2.33;;
41693;SDS011;27377;50.666;9.150;2023-04-03T09:22:24;7.88;;;2.47;;
41693;SDS011;27377;50.666;9.150;2023-04-03T09:25:02;6.38;;;2.40;;
41693;SDS011;27377;50.666;9.150;2023-04-03T09:27:38;5.38;;;2.35;;
41693;SDS011;27377;50.666;9.150;2023-04-03T09:30:03;7.20;;;2.22;;
41693;SDS011;27377;50.666;9.150;2023-04-03T09:32:35;5.93;;;2.30;;
41693;SDS011;27377;50.666;9.150;2023-04-03T09:35:03;4.78;;;2.20;;
41693;SDS011;27377;50.666;9.150;2023-04-03T09:37:44;6.90;;;2.20;;
41693;SDS011;27377;50.666;9.150;2023-04-03T09:42:50;5.80;;;2.20;;
41693;SDS011;27377;50.666;9.150;2023-04-03T09:50:38;6.63;;;1.88;;
41693;SDS011;27377;50.666;9.150;2023-04-03T09:53:31;6.70;;;2.00;;
41693;SDS011;27377;50.666;9.150;2023-04-03T09:56:00;6.23;;;1.80;;
41693;SDS011;27377;50.666;9.150;2023-04-03T09:58:29;4.90;;;1.80;;
41693;SDS011;27377;50.666;9.150;2023-04-03T10:00:56;4.10;;;1.50;;
41693;SDS011;27377;50.666;9.150;2023-04-03T10:03:24;4.90;;;1.58;;
41693;SDS011;27377;50.666;9.150;2023-04-03T10:06:02;4.43;;;1.23;;
41693;SDS011;27377;50.666;9.150;2023-04-03T10:08:32;3.92;;;1.40;;
41693;SDS011;27377;50.666;9.150;2023-04-03T10:11:11;5.47;;;1.15;;
41693;SDS011;27377;50.666;9.150;2023-04-03T10:16:48;3.92;;;1.35;;
41693;SDS011;27377;50.666;9.150;2023-04-03T10:19:36;3.70;;;1.23;;
41693;SDS011;27377;50.666;9.150;2023-04-03T10:24:58;3.95;;;1.30;;
41693;SDS011;27377;50.666;9.150;2023-04-03T10:30:28;4.05;;;1.30;;
41693;SDS011;27377;50.666;9.150;2023-04-03T10:32:58;4.82;;;1.60;;
41693;SDS011;27377;50.666;9.150;2023-04-03T10:38:44;4.68;;;1.45;;
41693;SDS011;27377;50.666;9.150;2023-04-03T10:41:31;3.90;;;1.13;;
41693;SDS011;27377;50.666;9.150;2023-04-03T10:44:11;3.70;;;1.30;;
41693;SDS011;27377;50.666;9.150;2023-04-03T10:47:02;5.57;;;1.20;;
41693;SDS011;27377;50.666;9.150;2023-04-03T10:49:44;4.35;;;1.10;;
41693;SDS011;27377;50.666;9.150;2023-04-03T10:52:24;3.60;;;1.30;;
41693;SDS011;27377;50.666;9.150;2023-04-03T10:55:18;5.68;;;1.20;;
41693;SDS011;27377;50.666;9.150;2023-04-03T10:57:47;4.60;;;1.45;;
41693;SDS011;27377;50.666;9.150;2023-04-03T11:00:21;4.13;;;1.10;;
41693;SDS011;27377;50.666;9.150;2023-04-03T11:02:55;5.47;;;1.10;;
41693;SDS011;27377;50.666;9.150;2023-04-03T11:05:30;3.55;;;1.25;;
41693;SDS011;27377;50.666;9.150;2023-04-03T11:08:28;4.37;;;1.30;;
41693;SDS011;27377;50.666;9.150;2023-04-03T11:11:11;4.30;;;1.40;;
41693;SDS011;27377;50.666;9.150;2023-04-03T11:13:43;4.40;;;1.33;;
41693;SDS011;27377;50.666;9.150;2023-04-03T11:16:18;6.20;;;1.50;;
41693;SDS011;27377;50.666;9.150;2023-04-03T11:18:51;5.03;;;1.50;;
41693;SDS011;27377;50.666;9.150;2023-04-03T11:21:37;3.90;;;1.20;;
41693;SDS011;27377;50.666;9.150;2023-04-03T11:24:11;4.85;;;1.40;;
41693;SDS011;27377;50.666;9.150;2023-04-03T11:26:45;5.25;;;1.20;;
41693;SDS011;27377;50.666;9.150;2023-04-03T11:29:14;4.40;;;1.20;;
41693;SDS011;27377;50.666;9.150;2023-04-03T11:31:54;4.68;;;1.27;;
41693;SDS011;27377;50.666;9.150;2023-04-03T11:37:13;5.40;;;1.35;;
41693;SDS011;27377;50.666;9.150;2023-04-03T11:39:54;4.03;;;1.30;;
41693;SDS011;27377;50.666;9.150;2023-04-03T11:42:42;3.92;;;1.20;;
41693;SDS011;27377;50.666;9.150;2023-04-03T11:45:24;4.03;;;1.20;;
41693;SDS011;27377;50.666;9.150;2023-04-03T11:47:58;5.15;;;1.27;;
41693;SDS011;27377;50.666;9.150;2023-04-03T11:50:50;5.28;;;1.40;;
41693;SDS011;27377;50.666;9.150;2023-04-03T11:55:43;3.83;;;1.10;;
41693;SDS011;27377;50.666;9.150;2023-04-03T11:58:19;4.72;;;1.30;;
41693;SDS011;27377;50.666;9.150;2023-04-03T12:00:57;5.18;;;1.40;;
41693;SDS011;27377;50.666;9.150;2023-04-03T12:13:39;3.55;;;1.20;;
41693;SDS011;27377;50.666;9.150;2023-04-03T12:26:44;5.37;;;1.20;;
41693;SDS011;27377;50.666;9.150;2023-04-03T12:29:37;3.92;;;1.25;;
41693;SDS011;27377;50.666;9.150;2023-04-03T12:34:53;3.70;;;1.30;;
41693;SDS011;27377;50.666;9.150;2023-04-03T12:42:57;5.07;;;1.25;;
41693;SDS011;27377;50.666;9.150;2023-04-03T12:45:49;4.50;;;1.30;;
41693;SDS011;27377;50.666;9.150;2023-04-03T12:48:26;3.97;;;1.20;;
41693;SDS011;27377;50.666;9.150;2023-04-03T12:50:53;4.32;;;1.30;;
41693;SDS011;27377;50.666;9.150;2023-04-03T12:53:24;3.92;;;1.27;;
41693;SDS011;27377;50.666;9.150;2023-04-03T12:55:53;5.85;;;1.30;;
41693;SDS011;27377;50.666;9.150;2023-04-03T13:01:03;3.45;;;1.23;;
41693;SDS011;27377;50.666;9.150;2023-04-03T13:03:43;3.88;;;1.08;;
41693;SDS011;27377;50.666;9.150;2023-04-03T13:06:14;4.00;;;1.20;;
41693;SDS011;27377;50.666;9.150;2023-04-03T13:09:00;3.63;;;1.20;;
41693;SDS011;27377;50.666;9.150;2023-04-03T13:11:39;2.80;;;1.08;;
41693;SDS011;27377;50.666;9.150;2023-04-03T13:14:22;3.50;;;1.05;;
41693;SDS011;27377;50.666;9.150;2023-04-03T13:16:54;3.88;;;1.00;;
41693;SDS011;27377;50.666;9.150;2023-04-03T13:19:22;5.07;;;1.27;;
41693;SDS011;27377;50.666;9.150;2023-04-03T13:21:49;4.18;;;1.20;;
41693;SDS011;27377;50.666;9.150;2023-04-03T13:24:21;4.93;;;1.27;;
41693;SDS011;27377;50.666;9.150;2023-04-03T13:26:47;4.07;;;1.10;;
41693;SDS011;27377;50.666;9.150;2023-04-03T13:29:29;3.57;;;1.30;;
41693;SDS011;27377;50.666;9.150;2023-04-03T13:31:58;4.47;;;1.23;;
41693;SDS011;27377;50.666;9.150;2023-04-03T13:34:26;3.75;;;1.30;;
41693;SDS011;27377;50.666;9.150;2023-04-03T13:39:26;5.00;;;1.23;;
41693;SDS011;27377;50.666;9.150;2023-04-03T13:41:55;4.30;;;1.27;;
41693;SDS011;27377;50.666;9.150;2023-04-03T13:52:31;3.75;;;1.25;;
41693;SDS011;27377;50.666;9.150;2023-04-03T13:55:24;2.60;;;1.02;;
41693;SDS011;27377;50.666;9.150;2023-04-03T14:00:48;4.72;;;1.17;;
41693;SDS011;27377;50.666;9.150;2023-04-03T14:03:20;4.35;;;1.20;;
41693;SDS011;27377;50.666;9.150;2023-04-03T14:05:46;4.32;;;1.20;;
41693;SDS011;27377;50.666;9.150;2023-04-03T14:08:12;3.30;;;1.40;;
41693;SDS011;27377;50.666;9.150;2023-04-03T14:10:37;4.90;;;1.23;;
41693;SDS011;27377;50.666;9.150;2023-04-03T14:13:04;4.53;;;1.42;;
41693;SDS011;27377;50.666;9.150;2023-04-03T14:15:30;3.80;;;1.20;;
41693;SDS011;27377;50.666;9.150;2023-04-03T14:17:57;3.30;;;1.23;;
41693;SDS011;27377;50.666;9.150;2023-04-03T14:20:24;4.05;;;1.30;;
41693;SDS011;27377;50.666;9.150;2023-04-03T14:22:51;4.18;;;1.30;;
41693;SDS011;27377;50.666;9.150;2023-04-03T14:25:19;4.68;;;1.38;;
41693;SDS011;27377;50.666;9.150;2023-04-03T14:27:48;5.57;;;1.50;;
41693;SDS011;27377;50.666;9.150;2023-04-03T14:30:20;4.27;;;1.33;;
41693;SDS011;27377;50.666;9.150;2023-04-03T14:32:48;5.32;;;1.40;;
41693;SDS011;27377;50.666;9.150;2023-04-03T14:35:14;4.10;;;1.30;;
41693;SDS011;27377;50.666;9.150;2023-04-03T14:37:40;4.90;;;1.40;;
41693;SDS011;27377;50.666;9.150;2023-04-03T14:40:07;5.88;;;1.48;;
41693;SDS011;27377;50.666;9.150;2023-04-03T14:42:35;4.30;;;1.60;;
41693;SDS011;27377;50.666;9.150;2023-04-03T14:45:02;4.57;;;1.40;;
41693;SDS011;27377;50.666;9.150;2023-04-03T14:47:31;3.42;;;1.35;;
41693;SDS011;27377;50.666;9.150;2023-04-03T14:49:57;4.53;;;1.50;;
41693;SDS011;27377;50.666;9.150;2023-04-03T14:52:31;4.30;;;1.40;;
41693;SDS011;27377;50.666;9.150;2023-04-03T14:54:58;4.03;;;1.30;;
41693;SDS011;27377;50.666;9.150;2023-04-03T14:57:25;4.55;;;1.38;;
41693;SDS011;27377;50.666;9.150;2023-04-03T14:59:52;3.90;;;1.23;;
41693;SDS011;27377;50.666;9.150;2023-04-03T15:02:26;5.88;;;1.30;;
41693;SDS011;27377;50.666;9.150;2023-04-03T15:04:56;4.47;;;1.45;;
41693;SDS011;27377;50.666;9.150;2023-04-03T15:07:24;3.72;;;1.30;;
41693;SDS011;27377;50.666;9.150;2023-04-03T15:09:51;4.97;;;1.30;;
41693;SDS011;27377;50.666;9.150;2023-04-03T15:12:17;4.47;;;1.40;;
41693;SDS011;27377;50.666;9.150;2023-04-03T15:14:43;4.45;;;1.42;;
41693;SDS011;27377;50.666;9.150;2023-04-03T15:17:15;4.07;;;1.40;;
41693;SDS011;27377;50.666;9.150;2023-04-03T15:19:45;4.40;;;1.40;;
41693;SDS011;27377;50.666;9.150;2023-04-03T15:22:14;4.75;;;1.40;;
41693;SDS011;27377;50.666;9.150;2023-04-03T15:24:42;3.38;;;1.38;;
41693;SDS011;27377;50.666;9.150;2023-04-03T15:27:07;4.63;;;1.30;;
41693;SDS011;27377;50.666;9.150;2023-04-03T15:29:34;4.68;;;1.60;;
41693;SDS011;27377;50.666;9.150;2023-04-03T15:31:59;5.65;;;1.50;;
41693;SDS011;27377;50.666;9.150;2023-04-03T15:34:25;4.55;;;1.33;;
41693;SDS011;27377;50.666;9.150;2023-04-03T15:36:51;4.35;;;1.48;;
41693;SDS011;27377;50.666;9.150;2023-04-03T15:39:17;4.80;;;1.30;;
41693;SDS011;27377;50.666;9.150;2023-04-03T15:41:43;3.97;;;1.30;;
41693;SDS011;27377;50.666;9.150;2023-04-03T15:44:10;3.90;;;1.30;;
41693;SDS011;27377;50.666;9.150;2023-04-03T15:46:37;4.75;;;1.50;;
41693;SDS011;27377;50.666;9.150;2023-04-03T15:49:03;2.97;;;1.20;;
41693;SDS011;27377;50.666;9.150;2023-04-03T15:51:29;4.47;;;1.38;;
41693;SDS011;27377;50.666;9.150;2023-04-03T15:53:55;4.43;;;1.30;;
41693;SDS011;27377;50.666;9.150;2023-04-03T15:56:20;3.63;;;1.27;;
41693;SDS011;27377;50.666;9.150;2023-04-03T15:58:46;4.35;;;1.40;;
41693;SDS011;27377;50.666;9.150;2023-04-03T16:01:11;4.90;;;1.40;;
41693;SDS011;27377;50.666;9.150;2023-04-03T16:03:39;4.35;;;1.30;;
41693;SDS011;27377;50.666;9.150;2023-04-03T16:06:10;4.35;;;1.33;;
41693;SDS011;27377;50.666;9.150;2023-04-03T16:08:40;4.25;;;1.30;;
41693;SDS011;27377;50.666;9.150;2023-04-03T16:11:05;3.10;;;1.27;;
41693;SDS011;27377;50.666;9.150;2023-04-03T16:13:31;6.20;;;1.50;;
41693;SDS011;27377;50.666;9.150;2023-04-03T16:15:58;3.88;;;1.45;;
41693;SDS011;27377;50.666;9.150;2023-04-03T16:18:25;5.60;;;1.50;;